Time;durP1;ratioP1;P1;durP2;ratioP2;P2;SDS_P1;SDS_P2;PMS_P1;PMS_P2;Temp;Humidity;BMP_temperature;BMP_pressure;BME280_temperature;BME280_humidity;BME280_pressure;Samples;Min_cycle;Max_cycle;Signal;HPM_P1;HPM_P2
2021/03/02 00:00:56;;;;;;;116.75;43.42;;;3.80;99.90;;;;;;5109407;27;20442;-65
2021/03/02 00:03:22;;;;;;;117.32;41.55;;;3.90;99.90;;;;;;5110761;27;20043;-65
2021/03/02 00:05:48;;;;;;;112.20;42.75;;;3.70;99.90;;;;;;5107838;28;20142;-65
2021/03/02 00:08:14;;;;;;;114.97;43.92;;;3.70;99.90;;;;;;5109653;27;20379;-65
2021/03/02 00:10:42;;;;;;;111.53;44.42;;;3.70;99.90;;;;;;5106488;28;20104;-65
2021/03/02 00:13:11;;;;;;;126.78;46.47;;;3.70;99.90;;;;;;5109201;27;20039;-65
2021/03/02 00:15:38;;;;;;;129.57;44.88;;;3.60;99.90;;;;;;5107614;28;20111;-65
2021/03/02 00:18:07;;;;;;;122.28;45.70;;;3.60;99.90;;;;;;5107199;28;20039;-65
2021/03/02 00:20:35;;;;;;;131.38;47.22;;;3.60;99.90;;;;;;5107839;27;20390;-65
2021/03/02 00:23:10;;;;;;;126.35;45.97;;;3.60;99.90;;;;;;5108101;27;20092;-65
2021/03/02 00:25:46;;;;;;;125.93;46.63;;;3.70;99.90;;;;;;5109833;27;21111;-65
2021/03/02 00:28:12;;;;;;;131.07;47.75;;;3.60;99.90;;;;;;5107423;28;20039;-65
2021/03/02 00:30:39;;;;;;;124.55;44.58;;;3.50;99.90;;;;;;5107404;27;20047;-65
2021/03/02 00:33:06;;;;;;;141.63;46.40;;;3.50;99.90;;;;;;5108792;28;20044;-65
2021/03/02 00:35:32;;;;;;;131.77;45.50;;;3.50;99.90;;;;;;5109729;27;20478;-65
2021/03/02 00:37:58;;;;;;;124.95;44.75;;;3.50;99.90;;;;;;5108348;28;20035;-65
2021/03/02 00:40:24;;;;;;;123.35;45.42;;;3.50;99.90;;;;;;5091561;28;20109;-65
2021/03/02 00:42:51;;;;;;;118.28;45.05;;;3.50;99.90;;;;;;5109385;28;20039;-65
2021/03/02 00:45:18;;;;;;;114.70;44.42;;;3.50;99.90;;;;;;5105915;28;20039;-65
2021/03/02 00:47:44;;;;;;;123.97;44.33;;;3.40;99.90;;;;;;5109888;28;20070;-65
2021/03/02 00:50:10;;;;;;;119.80;45.95;;;3.40;99.90;;;;;;5109432;28;20071;-65
2021/03/02 00:52:37;;;;;;;117.65;45.83;;;3.40;99.90;;;;;;5109714;28;20044;-65
2021/03/02 00:55:07;;;;;;;140.63;47.40;;;3.40;99.90;;;;;;5091240;28;20059;-65
2021/03/02 00:57:32;;;;;;;124.35;46.08;;;3.50;99.90;;;;;;5104389;28;20036;-65
2021/03/02 00:59:58;;;;;;;121.43;43.03;;;3.40;99.90;;;;;;5092172;28;20027;-65
2021/03/02 01:02:24;;;;;;;121.57;43.10;;;3.40;99.90;;;;;;5109644;28;20036;-65
2021/03/02 01:04:50;;;;;;;121.72;44.45;;;3.50;99.90;;;;;;5108753;28;20046;-65
2021/03/02 01:07:16;;;;;;;130.95;45.65;;;3.40;99.90;;;;;;5103801;28;20028;-65
2021/03/02 01:09:42;;;;;;;110.95;42.83;;;3.40;99.90;;;;;;5108793;28;20035;-65
2021/03/02 01:12:11;;;;;;;132.45;48.33;;;3.40;99.90;;;;;;5109360;28;20492;-65
2021/03/02 01:14:36;;;;;;;124.45;44.30;;;3.40;99.90;;;;;;5108416;28;20142;-65
2021/03/02 01:17:02;;;;;;;126.53;47.53;;;3.40;99.90;;;;;;5107986;28;20119;-65
2021/03/02 01:19:28;;;;;;;126.10;48.25;;;3.40;99.90;;;;;;5107064;28;20035;-65
2021/03/02 01:21:54;;;;;;;124.22;45.83;;;3.40;99.90;;;;;;5107263;28;20027;-65
2021/03/02 01:24:19;;;;;;;130.50;47.03;;;3.50;99.90;;;;;;5109877;28;20035;-65
2021/03/02 01:26:45;;;;;;;118.95;47.25;;;3.40;99.90;;;;;;5111194;27;20035;-65
2021/03/02 01:29:11;;;;;;;102.15;42.40;;;3.40;99.90;;;;;;5112247;27;20405;-65
2021/03/02 01:31:36;;;;;;;126.47;45.40;;;3.40;99.90;;;;;;5114082;28;20478;-65
2021/03/02 01:34:02;;;;;;;120.60;44.50;;;3.50;99.90;;;;;;5113494;28;20043;-65
2021/03/02 01:36:28;;;;;;;123.13;44.88;;;3.40;99.90;;;;;;5112738;27;20122;-65
2021/03/02 01:38:54;;;;;;;121.63;44.42;;;3.40;99.90;;;;;;5113191;27;20038;-65
2021/03/02 01:41:20;;;;;;;116.18;45.13;;;3.40;99.90;;;;;;5111393;27;20031;-65
2021/03/02 01:43:46;;;;;;;123.60;45.28;;;3.40;99.90;;;;;;5110597;27;20047;-65
2021/03/02 01:46:12;;;;;;;116.95;44.60;;;3.40;99.90;;;;;;5111572;27;20389;-65
2021/03/02 01:48:39;;;;;;;122.47;44.85;;;3.40;99.90;;;;;;5114217;27;20096;-65
2021/03/02 01:51:06;;;;;;;124.75;43.60;;;3.30;99.90;;;;;;5112855;27;20114;-65
2021/03/02 01:53:32;;;;;;;120.35;43.38;;;3.30;99.90;;;;;;5112840;27;20037;-65
2021/03/02 01:55:59;;;;;;;120.63;44.10;;;3.30;99.90;;;;;;5111610;27;20035;-65
2021/03/02 01:58:25;;;;;;;116.53;42.35;;;3.40;99.90;;;;;;5110055;27;20043;-65
2021/03/02 02:00:56;;;;;;;113.68;42.90;;;3.30;99.90;;;;;;5108451;27;20039;-65
2021/03/02 02:04:00;;;;;;;106.10;43.33;;;3.30;99.90;;;;;;5112163;28;20042;-65
2021/03/02 02:06:38;;;;;;;117.15;43.78;;;3.30;99.90;;;;;;5047075;28;21577;-65
2021/03/02 02:09:29;;;;;;;103.75;42.03;;;3.40;99.90;;;;;;5048332;28;20144;-65
2021/03/02 02:12:04;;;;;;;108.90;43.50;;;3.20;99.90;;;;;;5091503;27;20122;-65
2021/03/02 02:14:59;;;;;;;102.13;42.00;;;3.20;99.90;;;;;;5109419;27;20047;-65
2021/03/02 02:17:49;;;;;;;101.88;41.03;;;3.20;99.90;;;;;;5101245;28;20051;-64
2021/03/02 02:20:33;;;;;;;113.43;42.97;;;3.20;99.90;;;;;;5113192;28;20462;-65
2021/03/02 02:23:15;;;;;;;109.70;43.63;;;3.10;99.90;;;;;;5111485;27;20031;-64
2021/03/02 02:26:01;;;;;;;118.78;43.97;;;3.10;99.90;;;;;;5105264;27;20043;-65
2021/03/02 02:28:29;;;;;;;108.82;43.17;;;3.10;99.90;;;;;;5108117;27;20044;-65
2021/03/02 02:30:57;;;;;;;119.78;44.95;;;3.10;99.90;;;;;;5112060;27;20031;-65
2021/03/02 02:33:28;;;;;;;119.20;42.05;;;3.10;99.90;;;;;;5110004;27;20035;-65
2021/03/02 02:35:55;;;;;;;121.07;45.75;;;3.20;99.90;;;;;;5109540;27;20482;-65
2021/03/02 02:38:22;;;;;;;123.00;46.40;;;3.10;99.90;;;;;;5108912;27;20070;-65
2021/03/02 02:40:52;;;;;;;126.47;47.22;;;3.10;99.90;;;;;;5112386;27;20027;-65
2021/03/02 02:43:20;;;;;;;129.20;46.22;;;3.10;99.90;;;;;;5106361;27;20039;-65
2021/03/02 02:45:46;;;;;;;133.70;47.33;;;3.10;99.90;;;;;;5113016;27;20031;-64
2021/03/02 02:48:13;;;;;;;129.07;45.92;;;3.10;99.90;;;;;;5109558;27;20692;-65
2021/03/02 02:50:39;;;;;;;108.97;43.90;;;3.10;99.90;;;;;;5112554;28;20038;-64
2021/03/02 02:53:06;;;;;;;100.93;41.45;;;3.00;99.90;;;;;;5109175;27;20032;-65
2021/03/02 02:55:42;;;;;;;116.75;47.17;;;3.00;99.90;;;;;;5111959;28;20062;-65
2021/03/02 02:58:09;;;;;;;115.60;44.28;;;3.00;99.90;;;;;;5113353;27;20031;-65
2021/03/02 03:00:38;;;;;;;126.47;45.72;;;3.00;99.90;;;;;;5093199;28;20089;-65
2021/03/02 03:03:10;;;;;;;123.20;46.03;;;3.00;99.90;;;;;;5107029;28;20500;-65
2021/03/02 03:05:41;;;;;;;115.63;46.78;;;3.00;99.90;;;;;;5092607;28;20380;-65
2021/03/02 03:08:12;;;;;;;116.43;44.40;;;3.00;99.90;;;;;;5099059;27;20063;-64
2021/03/02 03:10:38;;;;;;;113.57;43.55;;;2.90;99.90;;;;;;5113342;27;20043;-64
2021/03/02 03:13:06;;;;;;;110.68;43.28;;;2.90;99.90;;;;;;5110839;27;20130;-64
2021/03/02 03:15:34;;;;;;;126.97;43.97;;;3.00;99.90;;;;;;5111492;28;20066;-64
2021/03/02 03:18:06;;;;;;;132.05;45.17;;;2.90;99.90;;;;;;5107865;27;20411;-64
2021/03/02 03:20:32;;;;;;;147.63;46.70;;;2.90;99.90;;;;;;5111710;28;20036;-65
2021/03/02 03:22:59;;;;;;;150.27;48.67;;;3.00;99.90;;;;;;5108268;27;20055;-65
2021/03/02 03:25:26;;;;;;;132.88;45.35;;;3.10;99.90;;;;;;5108507;28;20032;-64
2021/03/02 03:27:55;;;;;;;139.18;47.00;;;2.90;99.90;;;;;;5112718;27;20155;-65
2021/03/02 03:30:23;;;;;;;149.38;47.92;;;3.00;99.90;;;;;;5107379;27;20044;-64
2021/03/02 03:32:57;;;;;;;138.68;47.75;;;3.00;99.90;;;;;;5108493;27;20089;-65
2021/03/02 03:35:24;;;;;;;146.40;47.80;;;2.90;99.90;;;;;;5108982;27;20711;-64
2021/03/02 03:37:51;;;;;;;157.57;48.25;;;2.90;99.90;;;;;;5112418;27;20035;-65
2021/03/02 03:40:17;;;;;;;141.52;45.05;;;3.00;99.90;;;;;;5093523;27;20035;-64
2021/03/02 03:42:43;;;;;;;157.63;50.97;;;3.00;99.90;;;;;;5108540;27;20043;-64
2021/03/02 03:45:10;;;;;;;157.52;49.70;;;3.00;99.90;;;;;;5109609;28;20035;-65
2021/03/02 03:47:36;;;;;;;144.68;47.17;;;3.00;99.90;;;;;;5109711;28;20039;-65
2021/03/02 03:50:03;;;;;;;127.28;48.38;;;3.00;99.90;;;;;;5109819;28;20043;-65
2021/03/02 03:52:31;;;;;;;142.48;48.55;;;2.90;99.90;;;;;;5109282;27;20051;-65
2021/03/02 03:54:58;;;;;;;142.68;47.60;;;3.10;99.90;;;;;;5110634;28;20401;-64
2021/03/02 03:57:25;;;;;;;143.13;46.15;;;2.90;99.90;;;;;;5109532;27;20092;-64
2021/03/02 03:59:52;;;;;;;172.65;49.15;;;2.90;99.90;;;;;;5109824;28;20486;-64
2021/03/02 04:02:18;;;;;;;195.15;52.28;;;2.90;99.90;;;;;;5105224;27;20574;-64
2021/03/02 04:04:46;;;;;;;157.98;49.72;;;2.90;99.90;;;;;;5106602;28;20035;-65
2021/03/02 04:07:13;;;;;;;173.65;49.08;;;2.90;99.90;;;;;;5105973;28;20088;-64
2021/03/02 04:09:39;;;;;;;155.73;49.25;;;3.00;99.90;;;;;;5105977;28;20063;-64
2021/03/02 04:12:05;;;;;;;148.73;46.28;;;2.90;99.90;;;;;;5105702;27;20039;-64
2021/03/02 04:14:32;;;;;;;132.05;44.55;;;2.90;99.90;;;;;;5105696;27;20043;-64
2021/03/02 04:16:58;;;;;;;147.48;46.17;;;2.90;99.90;;;;;;5105338;27;20035;-65
2021/03/02 04:19:24;;;;;;;162.15;48.47;;;3.00;99.90;;;;;;5107699;28;20039;-64
2021/03/02 04:21:50;;;;;;;133.75;44.88;;;3.10;99.90;;;;;;5105669;28;20561;-64
2021/03/02 04:24:16;;;;;;;153.57;47.75;;;2.80;99.90;;;;;;5107147;28;20489;-64
2021/03/02 04:26:41;;;;;;;171.10;49.47;;;2.90;99.90;;;;;;5108168;28;20059;-65
2021/03/02 04:29:07;;;;;;;140.43;45.63;;;2.90;99.90;;;;;;5106065;28;20043;-64
2021/03/02 04:31:33;;;;;;;176.45;49.28;;;2.90;99.90;;;;;;5104207;28;20063;-64
2021/03/02 04:33:59;;;;;;;109.03;41.15;;;2.90;99.90;;;;;;5105646;28;20032;-65
2021/03/02 04:36:24;;;;;;;151.65;47.30;;;2.80;99.90;;;;;;5104374;28;20047;-64
2021/03/02 04:38:50;;;;;;;134.90;46.90;;;2.70;99.90;;;;;;5110631;27;20517;-64
2021/03/02 04:41:16;;;;;;;113.90;40.30;;;2.80;99.90;;;;;;5107833;28;20717;-65
2021/03/02 04:43:42;;;;;;;141.10;45.08;;;2.80;99.90;;;;;;5105593;28;20035;-65
2021/03/02 04:46:07;;;;;;;159.35;47.20;;;2.80;99.90;;;;;;5103405;28;20084;-64
2021/03/02 04:48:33;;;;;;;154.45;46.80;;;2.90;99.90;;;;;;5107180;27;20035;-64
2021/03/02 04:50:59;;;;;;;154.32;47.33;;;2.80;99.90;;;;;;5104481;28;20043;-64
2021/03/02 04:53:26;;;;;;;159.35;47.35;;;2.80;99.90;;;;;;5104457;28;20040;-64
2021/03/02 04:55:51;;;;;;;167.63;50.40;;;2.80;99.90;;;;;;5108056;28;20035;-65
2021/03/02 04:58:17;;;;;;;165.20;48.83;;;2.80;99.90;;;;;;5103491;27;20059;-64
2021/03/02 05:00:43;;;;;;;196.63;51.45;;;2.80;99.90;;;;;;5102639;28;20064;-65
2021/03/02 05:03:09;;;;;;;138.77;44.25;;;2.80;99.90;;;;;;5085149;28;20073;-64
2021/03/02 05:05:35;;;;;;;162.43;48.78;;;2.80;99.90;;;;;;5102184;28;20055;-64
2021/03/02 05:08:01;;;;;;;175.63;52.25;;;2.80;99.90;;;;;;5106889;28;20514;-64
2021/03/02 05:10:26;;;;;;;173.40;50.55;;;2.80;99.90;;;;;;5106854;28;20059;-65
2021/03/02 05:12:52;;;;;;;178.05;49.65;;;2.80;99.90;;;;;;5108100;28;20063;-64
2021/03/02 05:15:18;;;;;;;177.20;51.75;;;2.80;99.90;;;;;;5109567;28;20050;-64
2021/03/02 05:17:44;;;;;;;156.88;47.53;;;2.70;99.90;;;;;;5104848;28;20040;-64
2021/03/02 05:20:10;;;;;;;192.52;52.83;;;2.90;99.90;;;;;;5092230;28;20122;-64
2021/03/02 05:22:36;;;;;;;147.70;46.47;;;2.80;99.90;;;;;;5103946;28;20489;-65
2021/03/02 05:25:04;;;;;;;185.82;50.17;;;2.80;99.90;;;;;;5108320;28;20042;-65
2021/03/02 05:27:30;;;;;;;153.32;45.20;;;2.80;99.90;;;;;;5109726;28;20027;-64
2021/03/02 05:29:55;;;;;;;173.70;50.75;;;2.80;99.90;;;;;;5109451;28;20051;-64
2021/03/02 05:32:21;;;;;;;164.48;49.30;;;2.80;99.90;;;;;;5108656;28;20104;-64
2021/03/02 05:34:47;;;;;;;233.63;56.28;;;2.80;99.90;;;;;;5107773;28;20044;-64
2021/03/02 05:37:12;;;;;;;220.57;57.35;;;2.70;99.90;;;;;;5106439;28;20428;-64
2021/03/02 05:39:38;;;;;;;170.45;51.88;;;2.80;99.90;;;;;;5106517;28;20059;-64
2021/03/02 05:42:07;;;;;;;213.88;56.60;;;2.70;99.90;;;;;;5106999;28;20138;-64
2021/03/02 05:44:33;;;;;;;198.05;53.45;;;2.60;99.90;;;;;;5107730;28;20128;-65
2021/03/02 05:47:00;;;;;;;189.80;54.75;;;2.70;99.90;;;;;;5108069;28;20505;-64
2021/03/02 05:49:27;;;;;;;139.88;46.58;;;2.70;99.90;;;;;;5106278;28;20397;-64
2021/03/02 05:51:53;;;;;;;195.73;55.38;;;2.70;99.90;;;;;;5105824;28;20080;-64
2021/03/02 05:54:20;;;;;;;193.27;50.20;;;2.70;99.90;;;;;;5107978;28;20028;-64
2021/03/02 05:56:48;;;;;;;202.77;53.65;;;2.70;99.90;;;;;;5108326;28;20075;-65
2021/03/02 05:59:14;;;;;;;178.30;51.38;;;2.70;99.90;;;;;;5108965;28;20062;-64
2021/03/02 06:01:39;;;;;;;228.55;56.70;;;2.70;99.90;;;;;;5105212;28;20933;-65
2021/03/02 06:04:06;;;;;;;222.68;55.85;;;2.80;99.90;;;;;;5105606;28;20051;-64
2021/03/02 06:06:31;;;;;;;219.88;58.22;;;2.60;99.90;;;;;;5109799;28;20063;-65
2021/03/02 06:08:57;;;;;;;176.65;50.65;;;2.60;99.90;;;;;;5101563;28;20471;-65
2021/03/02 06:11:35;;;;;;;209.35;53.47;;;2.60;99.90;;;;;;5105061;28;20059;-65
2021/03/02 06:14:33;;;;;;;199.05;53.10;;;2.60;99.90;;;;;;5107307;28;20048;-65
2021/03/02 06:17:05;;;;;;;164.63;49.67;;;2.60;99.90;;;;;;5094204;28;20055;-65
2021/03/02 06:19:45;;;;;;;238.35;56.80;;;2.60;99.90;;;;;;5108195;28;20042;-64
2021/03/02 06:22:34;;;;;;;276.52;61.45;;;2.50;99.90;;;;;;5106836;28;20040;-65
2021/03/02 06:25:02;;;;;;;276.50;59.97;;;2.60;99.90;;;;;;5104278;28;20468;-65
2021/03/02 06:27:31;;;;;;;305.25;61.63;;;2.50;99.90;;;;;;5107594;28;20036;-64
2021/03/02 06:30:09;;;;;;;219.82;55.58;;;2.60;99.90;;;;;;5109970;28;20083;-65
2021/03/02 06:32:47;;;;;;;211.50;52.25;;;2.50;99.90;;;;;;5107160;28;20402;-65
2021/03/02 06:35:29;;;;;;;284.17;56.58;;;2.60;99.90;;;;;;5104413;28;20040;-65
2021/03/02 06:37:55;;;;;;;303.75;58.15;;;2.50;99.90;;;;;;5093196;28;20485;-65
2021/03/02 06:40:40;;;;;;;383.08;63.83;;;2.50;99.90;;;;;;5110759;28;20717;-65
2021/03/02 06:43:06;;;;;;;331.30;62.47;;;2.50;99.90;;;;;;5110317;28;20039;-65
2021/03/02 06:45:32;;;;;;;186.38;49.13;;;2.50;99.90;;;;;;5110084;28;20036;-65
2021/03/02 06:48:05;;;;;;;249.93;55.20;;;2.50;99.90;;;;;;5109502;28;20489;-65
2021/03/02 06:50:38;;;;;;;197.50;55.58;;;2.50;99.90;;;;;;5107843;27;20035;-64
2021/03/02 06:53:11;;;;;;;340.25;64.07;;;2.50;99.90;;;;;;5104213;27;20043;-65
2021/03/02 06:55:38;;;;;;;363.17;67.35;;;2.50;99.90;;;;;;5106370;27;21009;-65
2021/03/02 06:58:36;;;;;;;268.02;58.50;;;2.60;99.90;;;;;;5111692;28;20035;-65
2021/03/02 07:01:02;;;;;;;236.77;54.78;;;2.50;99.90;;;;;;5073275;27;20039;-64
2021/03/02 07:03:35;;;;;;;309.23;57.30;;;2.50;99.90;;;;;;5103130;27;20097;-65
2021/03/02 07:06:07;;;;;;;292.05;61.22;;;2.60;99.90;;;;;;5109422;27;20051;-65
2021/03/02 07:08:34;;;;;;;401.45;66.93;;;2.50;99.90;;;;;;5106828;28;20424;-64
2021/03/02 07:11:01;;;;;;;216.45;52.15;;;2.60;99.90;;;;;;5111168;28;20080;-65
2021/03/02 07:13:31;;;;;;;302.15;62.40;;;2.60;99.90;;;;;;5112011;28;20062;-64
2021/03/02 07:15:58;;;;;;;305.48;61.13;;;2.50;99.90;;;;;;5109877;28;20042;-65
2021/03/02 07:18:28;;;;;;;260.35;56.33;;;2.50;99.90;;;;;;5104625;28;20039;-65
2021/03/02 07:20:59;;;;;;;227.80;55.60;;;2.60;99.90;;;;;;5100722;27;20047;-65
2021/03/02 07:23:27;;;;;;;224.68;53.63;;;2.60;99.90;;;;;;5107405;27;20049;-65
2021/03/02 07:25:55;;;;;;;201.35;52.03;;;2.60;99.90;;;;;;5111371;28;20489;-65
2021/03/02 07:28:25;;;;;;;183.68;51.92;;;2.50;99.90;;;;;;5107835;27;20034;-65
2021/03/02 07:30:54;;;;;;;228.23;55.00;;;2.60;99.90;;;;;;5108579;27;20493;-65
2021/03/02 07:33:20;;;;;;;213.90;51.92;;;2.60;99.90;;;;;;5104525;27;20048;-65
2021/03/02 07:35:47;;;;;;;160.07;45.17;;;2.60;99.90;;;;;;5099634;27;20032;-65
2021/03/02 07:38:23;;;;;;;132.18;41.75;;;2.70;99.90;;;;;;5107043;27;20057;-65
2021/03/02 07:40:56;;;;;;;192.60;49.63;;;2.70;99.90;;;;;;5105252;27;20069;-65
2021/03/02 07:43:29;;;;;;;121.75;37.80;;;2.70;99.90;;;;;;5100730;27;20032;-64
2021/03/02 07:46:30;;;;;;;189.60;49.60;;;2.70;99.90;;;;;;5105414;27;20497;-64
2021/03/02 07:48:55;;;;;;;110.75;36.83;;;2.80;99.90;;;;;;5110322;28;20035;-64
2021/03/02 07:51:22;;;;;;;131.73;41.67;;;2.80;99.90;;;;;;5107367;27;20044;-65
2021/03/02 07:53:51;;;;;;;146.57;46.72;;;2.70;99.90;;;;;;5107635;28;20436;-65
2021/03/02 07:56:20;;;;;;;130.75;42.33;;;2.80;99.90;;;;;;5106845;27;20035;-65
2021/03/02 07:59:04;;;;;;;203.85;50.47;;;2.80;99.90;;;;;;5103166;27;20068;-65
2021/03/02 08:01:31;;;;;;;156.88;47.95;;;2.80;99.90;;;;;;5102545;27;20067;-64
2021/03/02 08:04:15;;;;;;;171.38;48.25;;;2.80;99.90;;;;;;5112106;27;20044;-64
2021/03/02 08:06:50;;;;;;;166.15;45.80;;;2.90;99.90;;;;;;5105330;27;20085;-64
2021/03/02 08:09:25;;;;;;;152.23;44.53;;;2.90;99.90;;;;;;5101607;27;20031;-64
2021/03/02 08:11:52;;;;;;;139.90;42.45;;;2.90;99.90;;;;;;5104966;27;20042;-64
2021/03/02 08:14:18;;;;;;;140.88;45.67;;;2.90;99.90;;;;;;5108469;28;20039;-64
2021/03/02 08:16:53;;;;;;;159.45;46.53;;;3.20;99.90;;;;;;5104705;28;20363;-65
2021/03/02 08:19:30;;;;;;;146.40;46.47;;;3.00;99.90;;;;;;5105742;28;20709;-64
2021/03/02 08:21:56;;;;;;;120.10;40.30;;;3.00;99.90;;;;;;5104401;28;20498;-65
2021/03/02 08:24:47;;;;;;;105.03;39.55;;;3.10;99.90;;;;;;5103706;27;20050;-64
2021/03/02 08:27:14;;;;;;;119.82;41.08;;;3.00;99.90;;;;;;5093699;27;20059;-64
2021/03/02 08:29:50;;;;;;;71.25;31.88;;;3.10;99.90;;;;;;5094721;28;20160;-64
2021/03/02 08:32:17;;;;;;;83.80;36.08;;;3.00;99.90;;;;;;5104485;28;20031;-65
2021/03/02 08:34:44;;;;;;;79.13;35.03;;;3.00;99.90;;;;;;5081842;28;20133;-64
2021/03/02 08:37:10;;;;;;;77.93;35.40;;;3.10;99.90;;;;;;5109291;28;20106;-65
2021/03/02 08:39:36;;;;;;;104.63;38.53;;;3.20;99.90;;;;;;5105715;28;20107;-64
2021/03/02 08:42:06;;;;;;;108.30;39.78;;;3.20;99.90;;;;;;5103087;27;20086;-65
2021/03/02 08:44:33;;;;;;;104.80;38.40;;;3.10;99.90;;;;;;5107845;27;20039;-64
2021/03/02 08:47:01;;;;;;;73.95;32.35;;;3.30;99.90;;;;;;5108310;28;20040;-64
2021/03/02 08:49:26;;;;;;;80.90;34.17;;;3.20;99.90;;;;;;5104583;28;20035;-64
2021/03/02 08:52:02;;;;;;;70.05;33.72;;;3.20;99.90;;;;;;5103456;28;20039;-65
2021/03/02 08:54:28;;;;;;;80.88;34.35;;;3.30;99.90;;;;;;5109253;28;20508;-65
2021/03/02 08:57:05;;;;;;;88.45;38.00;;;3.20;99.90;;;;;;5107240;28;20032;-64
2021/03/02 08:59:32;;;;;;;79.95;35.25;;;3.40;99.90;;;;;;5106829;28;20046;-65
2021/03/02 09:01:58;;;;;;;74.65;35.30;;;3.50;99.90;;;;;;5105646;28;20056;-65
2021/03/02 09:04:31;;;;;;;66.20;31.08;;;3.50;99.90;;;;;;5106382;28;20075;-65
2021/03/02 09:06:57;;;;;;;61.65;31.50;;;3.50;99.90;;;;;;5093129;28;20040;-65
2021/03/02 09:09:24;;;;;;;62.97;30.98;;;3.60;99.90;;;;;;5096409;28;20428;-64
2021/03/02 09:11:52;;;;;;;75.00;32.78;;;3.60;99.90;;;;;;5095933;28;20043;-65
2021/03/02 09:14:22;;;;;;;60.75;29.17;;;3.70;99.90;;;;;;5102297;28;20039;-65
2021/03/02 09:16:49;;;;;;;58.63;30.67;;;3.60;99.90;;;;;;5103483;28;20703;-65
2021/03/02 09:19:22;;;;;;;54.45;28.38;;;3.60;99.90;;;;;;5099349;28;20028;-65
2021/03/02 09:21:52;;;;;;;49.83;27.38;;;3.50;99.90;;;;;;5095974;28;20036;-64
2021/03/02 09:24:20;;;;;;;59.85;30.83;;;3.60;99.90;;;;;;5095343;28;20066;-65
2021/03/02 09:26:55;;;;;;;48.45;27.27;;;3.70;99.90;;;;;;5094109;28;20063;-65
2021/03/02 09:29:24;;;;;;;38.50;24.40;;;3.60;99.90;;;;;;5095564;28;20040;-65
2021/03/02 09:31:52;;;;;;;41.22;25.77;;;3.70;99.90;;;;;;5097883;28;20114;-65
2021/03/02 09:34:18;;;;;;;34.90;23.10;;;3.90;99.90;;;;;;5097236;28;20078;-65
2021/03/02 09:36:44;;;;;;;42.83;25.35;;;4.00;99.90;;;;;;5097587;28;20063;-65
2021/03/02 09:39:23;;;;;;;43.03;26.85;;;4.10;99.90;;;;;;5094456;28;20046;-65
2021/03/02 09:41:50;;;;;;;51.83;28.20;;;4.30;99.90;;;;;;5098889;28;20039;-65
2021/03/02 09:44:20;;;;;;;49.78;28.08;;;4.40;99.90;;;;;;5104733;28;20125;-65
2021/03/02 09:46:48;;;;;;;50.30;27.95;;;4.40;99.90;;;;;;5109098;27;20055;-65
2021/03/02 09:49:44;;;;;;;44.72;26.48;;;4.40;99.90;;;;;;5109709;27;20035;-65
2021/03/02 09:52:31;;;;;;;46.60;28.48;;;4.40;99.90;;;;;;5109911;28;20039;-65
2021/03/02 09:55:14;;;;;;;48.40;27.77;;;4.30;99.90;;;;;;5090225;28;20580;-65
2021/03/02 09:57:50;;;;;;;46.33;27.67;;;4.40;99.90;;;;;;5095193;28;20027;-65
2021/03/02 10:00:24;;;;;;;49.08;27.95;;;4.40;99.90;;;;;;5097835;27;20122;-65
2021/03/02 10:02:55;;;;;;;45.33;26.98;;;4.40;99.90;;;;;;5082939;27;20040;-65
2021/03/02 10:05:35;;;;;;;47.75;29.25;;;4.50;99.90;;;;;;5107145;27;20043;-65
2021/03/02 10:08:21;;;;;;;41.28;27.42;;;4.40;99.90;;;;;;5105916;27;20542;-65
2021/03/02 10:10:48;;;;;;;39.47;25.35;;;4.50;99.90;;;;;;5087222;27;20087;-65
2021/03/02 10:13:28;;;;;;;43.53;27.60;;;4.50;99.90;;;;;;5098985;28;20051;-65
2021/03/02 10:16:30;;;;;;;39.03;25.50;;;4.70;99.90;;;;;;5099468;27;20039;-65
2021/03/02 10:19:04;;;;;;;40.22;26.98;;;4.80;99.90;;;;;;5102000;27;20115;-65
2021/03/02 10:21:44;;;;;;;41.22;25.33;;;5.10;99.90;;;;;;5096603;27;22418;-65
2021/03/02 10:24:34;;;;;;;31.75;22.48;;;5.30;99.90;;;;;;5103795;27;20048;-65
2021/03/02 10:27:10;;;;;;;36.78;23.83;;;5.30;99.90;;;;;;5104905;28;20638;-65
2021/03/02 10:29:36;;;;;;;29.13;21.55;;;5.50;99.90;;;;;;5108621;27;20113;-65
2021/03/02 10:32:04;;;;;;;30.73;21.83;;;5.50;99.90;;;;;;5107008;27;20484;-65
2021/03/02 10:34:35;;;;;;;31.23;21.77;;;5.40;99.90;;;;;;5107157;28;20036;-65
2021/03/02 10:37:03;;;;;;;31.70;23.90;;;5.50;99.90;;;;;;5109804;28;20043;-65
2021/03/02 10:39:28;;;;;;;33.72;22.92;;;5.50;99.90;;;;;;5111682;28;20122;-65
2021/03/02 10:41:54;;;;;;;31.50;22.67;;;5.70;99.90;;;;;;5107389;27;20607;-65
2021/03/02 10:44:20;;;;;;;34.33;24.48;;;5.70;99.90;;;;;;5108517;27;20039;-65
2021/03/02 10:46:47;;;;;;;33.22;23.70;;;6.10;99.90;;;;;;5108619;28;20478;-65
2021/03/02 10:49:12;;;;;;;29.55;22.38;;;6.20;99.90;;;;;;5110188;28;20192;-65
2021/03/02 10:51:39;;;;;;;27.65;20.77;;;6.30;99.90;;;;;;5104910;27;20784;-65
2021/03/02 10:54:05;;;;;;;29.77;22.02;;;6.40;99.90;;;;;;5077279;28;20040;-65
2021/03/02 10:56:31;;;;;;;31.23;23.40;;;6.60;99.90;;;;;;5097855;28;20123;-65
2021/03/02 10:58:58;;;;;;;29.58;21.98;;;6.70;99.90;;;;;;5097108;28;20176;-65
2021/03/02 11:01:24;;;;;;;31.55;23.30;;;6.70;99.90;;;;;;5100564;27;20040;-65
2021/03/02 11:03:51;;;;;;;30.98;23.88;;;6.90;99.90;;;;;;5109032;28;20040;-65
2021/03/02 11:06:19;;;;;;;28.00;22.45;;;7.20;99.90;;;;;;5105140;27;20027;-65
2021/03/02 11:08:45;;;;;;;34.33;23.38;;;7.20;99.60;;;;;;5099400;27;20485;-65
2021/03/02 11:11:12;;;;;;;28.90;22.10;;;7.30;99.90;;;;;;5095243;28;20061;-66
2021/03/02 11:13:38;;;;;;;30.52;24.48;;;7.40;99.90;;;;;;5101467;27;20050;-65
2021/03/02 11:16:04;;;;;;;30.20;23.38;;;7.40;99.90;;;;;;5098451;28;20046;-65
2021/03/02 11:18:30;;;;;;;29.00;23.40;;;7.50;99.10;;;;;;5103676;28;20114;-65
2021/03/02 11:20:56;;;;;;;27.70;22.55;;;7.50;99.00;;;;;;5108485;28;20482;-65
2021/03/02 11:23:22;;;;;;;26.83;22.08;;;7.50;98.30;;;;;;5101108;28;20050;-65
2021/03/02 11:25:48;;;;;;;27.38;22.77;;;7.50;97.80;;;;;;5104193;28;20047;-65
2021/03/02 11:28:15;;;;;;;26.17;22.30;;;7.70;98.20;;;;;;5104866;28;20416;-65
2021/03/02 11:30:41;;;;;;;25.63;22.25;;;7.80;98.20;;;;;;5098555;28;20073;-66
2021/03/02 11:33:08;;;;;;;25.67;21.40;;;7.70;97.20;;;;;;5098281;28;20081;-65
2021/03/02 11:35:34;;;;;;;24.23;20.75;;;7.90;98.00;;;;;;5096184;28;20551;-66
2021/03/02 11:38:00;;;;;;;26.25;22.17;;;8.10;97.70;;;;;;5100047;28;20048;-65
2021/03/02 11:40:27;;;;;;;26.23;20.90;;;8.20;97.70;;;;;;5098490;28;20400;-65
2021/03/02 11:42:53;;;;;;;24.73;20.75;;;8.40;97.50;;;;;;5098354;28;20117;-66
2021/03/02 11:45:23;;;;;;;24.63;19.42;;;8.50;97.10;;;;;;5099212;28;20039;-65
2021/03/02 11:47:50;;;;;;;22.63;19.83;;;8.60;96.30;;;;;;5097213;28;20042;-66
2021/03/02 11:50:16;;;;;;;25.52;20.60;;;8.90;97.00;;;;;;5098798;28;20047;-66
2021/03/02 11:52:42;;;;;;;24.13;19.65;;;8.70;96.00;;;;;;5099032;28;20096;-66
2021/03/02 11:55:10;;;;;;;26.58;21.77;;;8.80;96.20;;;;;;5099235;28;20050;-66
2021/03/02 11:57:36;;;;;;;23.48;20.98;;;9.10;96.80;;;;;;5098398;28;20430;-66
2021/03/02 12:00:05;;;;;;;23.90;21.40;;;9.10;95.40;;;;;;5100978;28;20049;-66
2021/03/02 12:02:31;;;;;;;23.85;20.92;;;9.10;95.50;;;;;;5106071;28;20043;-66
2021/03/02 12:04:56;;;;;;;24.05;21.38;;;9.20;95.90;;;;;;5085346;28;20965;-66
2021/03/02 12:07:22;;;;;;;22.98;20.58;;;9.30;94.60;;;;;;5098064;28;20478;-66
2021/03/02 12:09:48;;;;;;;23.15;20.75;;;9.50;95.00;;;;;;5096341;28;20036;-66
2021/03/02 12:12:14;;;;;;;23.00;20.50;;;9.50;94.60;;;;;;5098122;28;20132;-66
2021/03/02 12:14:40;;;;;;;21.88;18.75;;;9.70;94.80;;;;;;5103352;28;20100;-66
2021/03/02 12:17:05;;;;;;;20.67;17.80;;;9.90;94.10;;;;;;5105258;28;20075;-66
2021/03/02 12:19:31;;;;;;;21.75;19.45;;;9.90;92.70;;;;;;5107864;28;20028;-66
2021/03/02 12:21:57;;;;;;;21.52;19.08;;;10.00;93.40;;;;;;5105515;28;20039;-66
2021/03/02 12:24:22;;;;;;;22.65;20.35;;;9.90;93.30;;;;;;5109379;28;20359;-66
2021/03/02 12:26:49;;;;;;;21.27;19.17;;;9.90;92.90;;;;;;5107821;28;20038;-66
2021/03/02 12:29:15;;;;;;;20.90;18.73;;;10.00;93.60;;;;;;5100034;28;20032;-66
2021/03/02 12:31:42;;;;;;;22.85;19.27;;;10.20;93.10;;;;;;5097834;28;20040;-66
2021/03/02 12:34:08;;;;;;;22.13;19.83;;;10.40;93.00;;;;;;5105374;28;20063;-66
2021/03/02 12:36:34;;;;;;;20.70;18.48;;;10.30;93.00;;;;;;5103083;28;20036;-66
2021/03/02 12:39:00;;;;;;;21.92;19.67;;;10.40;93.20;;;;;;5096430;28;20046;-66
2021/03/02 12:41:26;;;;;;;22.25;19.90;;;10.40;92.50;;;;;;5098158;28;20078;-66